sensor_id;sensor_type;location;lat;lon;timestamp;temperature;humidity
33717;DHT22;20046;50.746;7.072;2024-01-27T00:02:18;3.20;99.90
33717;DHT22;20046;50.746;7.072;2024-01-27T00:04:44;3.20;99.90
33717;DHT22;20046;50.746;7.072;2024-01-27T00:07:10;3.20;99.90
33717;DHT22;20046;50.746;7.072;2024-01-27T00:09:35;3.20;99.90
33717;DHT22;20046;50.746;7.072;2024-01-27T00:12:01;3.10;99.90
33717;DHT22;20046;50.746;7.072;2024-01-27T00:14:27;3.10;99.90
33717;DHT22;20046;50.746;7.072;2024-01-27T00:16:53;3.10;99.90
33717;DHT22;20046;50.746;7.072;2024-01-27T00:19:18;3.00;99.90
33717;DHT22;20046;50.746;7.072;2024-01-27T00:21:44;2.90;99.90
33717;DHT22;20046;50.746;7.072;2024-01-27T00:24:09;2.90;99.90
33717;DHT22;20046;50.746;7.072;2024-01-27T00:26:35;2.90;99.90
33717;DHT22;20046;50.746;7.072;2024-01-27T00:29:01;2.90;99.90
33717;DHT22;20046;50.746;7.072;2024-01-27T00:31:26;2.80;99.90
33717;DHT22;20046;50.746;7.072;2024-01-27T00:33:52;2.80;99.90
33717;DHT22;20046;50.746;7.072;2024-01-27T00:36:17;2.80;99.90
33717;DHT22;20046;50.746;7.072;2024-01-27T00:38:44;2.80;99.90
33717;DHT22;20046;50.746;7.072;2024-01-27T00:41:15;2.70;99.90
33717;DHT22;20046;50.746;7.072;2024-01-27T00:43:40;2.70;99.90
33717;DHT22;20046;50.746;7.072;2024-01-27T00:46:06;2.70;99.90
33717;DHT22;20046;50.746;7.072;2024-01-27T00:48:31;2.60;99.90
33717;DHT22;20046;50.746;7.072;2024-01-27T00:50:57;2.60;99.90
33717;DHT22;20046;50.746;7.072;2024-01-27T00:53:23;2.50;99.90
33717;DHT22;20046;50.746;7.072;2024-01-27T00:55:48;2.50;99.90
33717;DHT22;20046;50.746;7.072;2024-01-27T00:58:16;2.50;99.90
33717;DHT22;20046;50.746;7.072;2024-01-27T01:00:41;2.60;99.90
33717;DHT22;20046;50.746;7.072;2024-01-27T01:03:07;2.60;99.90
33717;DHT22;20046;50.746;7.072;2024-01-27T01:05:32;2.50;99.90
33717;DHT22;20046;50.746;7.072;2024-01-27T01:07:58;2.50;99.90
33717;DHT22;20046;50.746;7.072;2024-01-27T01:10:24;2.40;99.90
33717;DHT22;20046;50.746;7.072;2024-01-27T01:12:49;2.40;99.90
33717;DHT22;20046;50.746;7.072;2024-01-27T01:15:15;2.40;99.90
33717;DHT22;20046;50.746;7.072;2024-01-27T01:17:41;2.40;99.90
33717;DHT22;20046;50.746;7.072;2024-01-27T01:20:07;2.40;99.90
33717;DHT22;20046;50.746;7.072;2024-01-27T01:22:33;2.40;99.90
33717;DHT22;20046;50.746;7.072;2024-01-27T01:24:58;2.50;99.90
33717;DHT22;20046;50.746;7.072;2024-01-27T01:27:24;2.40;99.90
33717;DHT22;20046;50.746;7.072;2024-01-27T01:29:49;2.40;99.90
33717;DHT22;20046;50.746;7.072;2024-01-27T01:32:15;2.30;99.90
33717;DHT22;20046;50.746;7.072;2024-01-27T01:34:41;2.30;99.90
33717;DHT22;20046;50.746;7.072;2024-01-27T01:37:06;2.30;99.90
33717;DHT22;20046;50.746;7.072;2024-01-27T01:39:32;2.30;99.90
33717;DHT22;20046;50.746;7.072;2024-01-27T01:41:57;2.30;99.90
33717;DHT22;20046;50.746;7.072;2024-01-27T01:44:28;2.20;99.90
33717;DHT22;20046;50.746;7.072;2024-01-27T01:46:55;2.20;99.90
33717;DHT22;20046;50.746;7.072;2024-01-27T01:49:20;2.20;99.90
33717;DHT22;20046;50.746;7.072;2024-01-27T01:51:46;2.20;99.90
33717;DHT22;20046;50.746;7.072;2024-01-27T01:54:12;2.20;99.90
33717;DHT22;20046;50.746;7.072;2024-01-27T01:56:38;2.20;99.90
33717;DHT22;20046;50.746;7.072;2024-01-27T01:59:03;2.20;99.90
33717;DHT22;20046;50.746;7.072;2024-01-27T02:01:29;2.20;99.90
33717;DHT22;20046;50.746;7.072;2024-01-27T02:03:54;2.10;99.90
33717;DHT22;20046;50.746;7.072;2024-01-27T02:06:20;2.10;99.90
33717;DHT22;20046;50.746;7.072;2024-01-27T02:08:46;2.10;99.90
33717;DHT22;20046;50.746;7.072;2024-01-27T02:11:12;2.10;99.90
33717;DHT22;20046;50.746;7.072;2024-01-27T02:13:37;2.10;99.90
33717;DHT22;20046;50.746;7.072;2024-01-27T02:16:03;2.10;99.90
33717;DHT22;20046;50.746;7.072;2024-01-27T02:18:29;2.00;99.90
33717;DHT22;20046;50.746;7.072;2024-01-27T02:20:54;2.00;99.90
33717;DHT22;20046;50.746;7.072;2024-01-27T02:23:20;2.00;99.90
33717;DHT22;20046;50.746;7.072;2024-01-27T02:25:46;2.00;99.90
33717;DHT22;20046;50.746;7.072;2024-01-27T02:28:11;2.00;99.90
33717;DHT22;20046;50.746;7.072;2024-01-27T02:30:38;2.00;99.90
33717;DHT22;20046;50.746;7.072;2024-01-27T02:33:04;2.00;99.90
33717;DHT22;20046;50.746;7.072;2024-01-27T02:35:30;2.00;99.90
33717;DHT22;20046;50.746;7.072;2024-01-27T02:37:56;2.00;99.90
33717;DHT22;20046;50.746;7.072;2024-01-27T02:40:22;2.00;99.90
33717;DHT22;20046;50.746;7.072;2024-01-27T02:42:47;2.00;99.90
33717;DHT22;20046;50.746;7.072;2024-01-27T02:45:13;2.00;99.90
33717;DHT22;20046;50.746;7.072;2024-01-27T02:47:39;2.00;99.90
33717;DHT22;20046;50.746;7.072;2024-01-27T02:50:05;2.00;99.90
33717;DHT22;20046;50.746;7.072;2024-01-27T02:52:32;1.90;99.90
33717;DHT22;20046;50.746;7.072;2024-01-27T02:54:57;1.90;99.90
33717;DHT22;20046;50.746;7.072;2024-01-27T02:57:23;1.90;99.90
33717;DHT22;20046;50.746;7.072;2024-01-27T02:59:49;1.90;99.90
33717;DHT22;20046;50.746;7.072;2024-01-27T03:02:15;1.90;99.90
33717;DHT22;20046;50.746;7.072;2024-01-27T03:04:41;1.90;99.90
33717;DHT22;20046;50.746;7.072;2024-01-27T03:07:06;1.90;99.90
33717;DHT22;20046;50.746;7.072;2024-01-27T03:09:32;2.00;99.90
33717;DHT22;20046;50.746;7.072;2024-01-27T03:11:58;2.00;99.90
33717;DHT22;20046;50.746;7.072;2024-01-27T03:14:24;2.00;99.90
33717;DHT22;20046;50.746;7.072;2024-01-27T03:16:50;2.00;99.90
33717;DHT22;20046;50.746;7.072;2024-01-27T03:19:16;1.90;99.90
33717;DHT22;20046;50.746;7.072;2024-01-27T03:21:41;1.90;99.90
33717;DHT22;20046;50.746;7.072;2024-01-27T03:24:07;1.90;99.90
33717;DHT22;20046;50.746;7.072;2024-01-27T03:26:33;1.80;99.90
33717;DHT22;20046;50.746;7.072;2024-01-27T03:28:58;1.70;99.90
33717;DHT22;20046;50.746;7.072;2024-01-27T03:31:30;1.70;99.90
33717;DHT22;20046;50.746;7.072;2024-01-27T03:33:56;1.60;99.90
33717;DHT22;20046;50.746;7.072;2024-01-27T03:36:22;1.50;99.90
33717;DHT22;20046;50.746;7.072;2024-01-27T03:38:47;1.50;99.90
33717;DHT22;20046;50.746;7.072;2024-01-27T03:41:13;1.40;99.90
33717;DHT22;20046;50.746;7.072;2024-01-27T03:43:39;1.40;99.90
33717;DHT22;20046;50.746;7.072;2024-01-27T03:46:04;1.40;99.90
33717;DHT22;20046;50.746;7.072;2024-01-27T03:48:30;1.30;99.90
33717;DHT22;20046;50.746;7.072;2024-01-27T03:50:56;1.30;99.90
33717;DHT22;20046;50.746;7.072;2024-01-27T03:53:21;1.30;99.90
33717;DHT22;20046;50.746;7.072;2024-01-27T03:55:47;1.30;99.90
33717;DHT22;20046;50.746;7.072;2024-01-27T03:58:12;1.30;99.90
33717;DHT22;20046;50.746;7.072;2024-01-27T04:00:38;1.30;99.90
33717;DHT22;20046;50.746;7.072;2024-01-27T04:03:04;1.30;99.90
33717;DHT22;20046;50.746;7.072;2024-01-27T04:05:30;1.30;99.90
33717;DHT22;20046;50.746;7.072;2024-01-27T04:07:56;1.20;99.90
33717;DHT22;20046;50.746;7.072;2024-01-27T04:10:22;1.30;99.90
33717;DHT22;20046;50.746;7.072;2024-01-27T04:12:48;1.30;99.90
33717;DHT22;20046;50.746;7.072;2024-01-27T04:15:14;1.30;99.90
33717;DHT22;20046;50.746;7.072;2024-01-27T04:17:40;1.30;99.90
33717;DHT22;20046;50.746;7.072;2024-01-27T04:20:07;1.40;99.90
33717;DHT22;20046;50.746;7.072;2024-01-27T04:22:34;1.30;99.90
33717;DHT22;20046;50.746;7.072;2024-01-27T04:24:59;1.40;99.90
33717;DHT22;20046;50.746;7.072;2024-01-27T04:27:27;1.50;99.90
33717;DHT22;20046;50.746;7.072;2024-01-27T04:29:53;1.60;99.90
33717;DHT22;20046;50.746;7.072;2024-01-27T04:32:18;1.70;99.90
33717;DHT22;20046;50.746;7.072;2024-01-27T04:34:44;1.70;99.90
33717;DHT22;20046;50.746;7.072;2024-01-27T04:37:09;1.70;99.90
33717;DHT22;20046;50.746;7.072;2024-01-27T04:39:35;1.70;99.90
33717;DHT22;20046;50.746;7.072;2024-01-27T04:42:00;1.70;99.90
33717;DHT22;20046;50.746;7.072;2024-01-27T04:44:26;1.70;99.90
33717;DHT22;20046;50.746;7.072;2024-01-27T04:46:52;1.60;99.90
33717;DHT22;20046;50.746;7.072;2024-01-27T04:49:18;1.60;99.90
33717;DHT22;20046;50.746;7.072;2024-01-27T04:51:43;1.60;99.90
33717;DHT22;20046;50.746;7.072;2024-01-27T04:54:09;1.60;99.90
33717;DHT22;20046;50.746;7.072;2024-01-27T04:56:35;1.70;99.90
33717;DHT22;20046;50.746;7.072;2024-01-27T04:59:01;1.80;99.90
33717;DHT22;20046;50.746;7.072;2024-01-27T05:01:26;1.70;99.90
33717;DHT22;20046;50.746;7.072;2024-01-27T05:03:52;1.80;99.90
33717;DHT22;20046;50.746;7.072;2024-01-27T05:06:18;1.70;99.90
33717;DHT22;20046;50.746;7.072;2024-01-27T05:08:43;1.70;99.90
33717;DHT22;20046;50.746;7.072;2024-01-27T05:11:09;1.70;99.90
33717;DHT22;20046;50.746;7.072;2024-01-27T05:13:35;1.70;99.90
33717;DHT22;20046;50.746;7.072;2024-01-27T05:16:03;1.60;99.90
33717;DHT22;20046;50.746;7.072;2024-01-27T05:18:28;1.50;99.90
33717;DHT22;20046;50.746;7.072;2024-01-27T05:20:54;1.40;99.90
33717;DHT22;20046;50.746;7.072;2024-01-27T05:23:20;1.40;99.90
33717;DHT22;20046;50.746;7.072;2024-01-27T05:25:45;1.40;99.90
33717;DHT22;20046;50.746;7.072;2024-01-27T05:28:11;1.30;99.90
33717;DHT22;20046;50.746;7.072;2024-01-27T05:30:36;1.20;99.90
33717;DHT22;20046;50.746;7.072;2024-01-27T05:33:02;1.20;99.90
33717;DHT22;20046;50.746;7.072;2024-01-27T05:35:27;1.10;99.90
33717;DHT22;20046;50.746;7.072;2024-01-27T05:37:53;1.10;99.90
33717;DHT22;20046;50.746;7.072;2024-01-27T05:40:19;1.00;99.90
33717;DHT22;20046;50.746;7.072;2024-01-27T05:42:44;1.00;99.90
33717;DHT22;20046;50.746;7.072;2024-01-27T05:45:11;1.00;99.90
33717;DHT22;20046;50.746;7.072;2024-01-27T05:47:36;1.00;99.90
33717;DHT22;20046;50.746;7.072;2024-01-27T05:50:02;1.10;99.90
33717;DHT22;20046;50.746;7.072;2024-01-27T05:52:28;1.10;99.90
33717;DHT22;20046;50.746;7.072;2024-01-27T05:54:54;1.10;99.90
33717;DHT22;20046;50.746;7.072;2024-01-27T05:57:20;1.10;99.90
33717;DHT22;20046;50.746;7.072;2024-01-27T05:59:45;1.10;99.90
33717;DHT22;20046;50.746;7.072;2024-01-27T06:02:11;1.00;99.90
33717;DHT22;20046;50.746;7.072;2024-01-27T06:04:37;1.00;99.90
33717;DHT22;20046;50.746;7.072;2024-01-27T06:07:02;0.90;99.90
33717;DHT22;20046;50.746;7.072;2024-01-27T06:09:28;0.90;99.90
33717;DHT22;20046;50.746;7.072;2024-01-27T06:11:53;0.90;99.90
33717;DHT22;20046;50.746;7.072;2024-01-27T06:14:19;0.90;99.90
33717;DHT22;20046;50.746;7.072;2024-01-27T06:16:45;0.90;99.90
33717;DHT22;20046;50.746;7.072;2024-01-27T06:19:10;0.90;99.90
33717;DHT22;20046;50.746;7.072;2024-01-27T06:21:36;1.00;99.90
33717;DHT22;20046;50.746;7.072;2024-01-27T06:24:01;1.10;99.90
33717;DHT22;20046;50.746;7.072;2024-01-27T06:26:27;1.10;99.90
33717;DHT22;20046;50.746;7.072;2024-01-27T06:28:53;1.00;99.90
33717;DHT22;20046;50.746;7.072;2024-01-27T06:31:18;1.00;99.90
33717;DHT22;20046;50.746;7.072;2024-01-27T06:33:44;1.00;99.90
33717;DHT22;20046;50.746;7.072;2024-01-27T06:36:09;0.90;99.90
33717;DHT22;20046;50.746;7.072;2024-01-27T06:38:37;0.90;99.90
33717;DHT22;20046;50.746;7.072;2024-01-27T06:41:03;0.90;99.90
33717;DHT22;20046;50.746;7.072;2024-01-27T06:43:29;1.00;99.90
33717;DHT22;20046;50.746;7.072;2024-01-27T06:45:54;1.00;99.90
33717;DHT22;20046;50.746;7.072;2024-01-27T06:48:22;0.90;99.90
33717;DHT22;20046;50.746;7.072;2024-01-27T06:50:50;1.00;99.90
33717;DHT22;20046;50.746;7.072;2024-01-27T06:53:18;1.00;99.90
33717;DHT22;20046;50.746;7.072;2024-01-27T06:55:44;1.00;99.90
33717;DHT22;20046;50.746;7.072;2024-01-27T06:58:10;1.00;99.90
33717;DHT22;20046;50.746;7.072;2024-01-27T07:00:35;1.00;99.90
33717;DHT22;20046;50.746;7.072;2024-01-27T07:03:01;1.00;99.90
33717;DHT22;20046;50.746;7.072;2024-01-27T07:05:28;1.10;99.90
33717;DHT22;20046;50.746;7.072;2024-01-27T07:07:53;1.10;99.90
33717;DHT22;20046;50.746;7.072;2024-01-27T07:10:19;1.10;99.90
33717;DHT22;20046;50.746;7.072;2024-01-27T07:12:45;1.10;99.90
33717;DHT22;20046;50.746;7.072;2024-01-27T07:15:10;1.10;99.90
33717;DHT22;20046;50.746;7.072;2024-01-27T07:17:36;1.10;99.90
33717;DHT22;20046;50.746;7.072;2024-01-27T07:20:01;1.10;99.90
33717;DHT22;20046;50.746;7.072;2024-01-27T07:22:27;1.10;99.90
33717;DHT22;20046;50.746;7.072;2024-01-27T07:24:53;1.10;99.90
33717;DHT22;20046;50.746;7.072;2024-01-27T07:27:18;1.10;99.90
33717;DHT22;20046;50.746;7.072;2024-01-27T07:29:44;1.20;99.90
33717;DHT22;20046;50.746;7.072;2024-01-27T07:32:10;1.30;99.90
33717;DHT22;20046;50.746;7.072;2024-01-27T07:34:43;1.30;99.90
33717;DHT22;20046;50.746;7.072;2024-01-27T07:37:09;1.40;99.90
33717;DHT22;20046;50.746;7.072;2024-01-27T07:39:35;1.50;99.90
33717;DHT22;20046;50.746;7.072;2024-01-27T07:42:00;1.70;99.90
33717;DHT22;20046;50.746;7.072;2024-01-27T07:44:27;1.90;99.90
33717;DHT22;20046;50.746;7.072;2024-01-27T07:46:52;2.20;99.90
33717;DHT22;20046;50.746;7.072;2024-01-27T07:49:18;2.50;99.90
33717;DHT22;20046;50.746;7.072;2024-01-27T07:51:44;2.70;99.90
33717;DHT22;20046;50.746;7.072;2024-01-27T07:54:10;3.00;99.90
33717;DHT22;20046;50.746;7.072;2024-01-27T07:56:37;3.20;99.90
33717;DHT22;20046;50.746;7.072;2024-01-27T07:59:02;3.40;99.90
33717;DHT22;20046;50.746;7.072;2024-01-27T08:01:29;3.60;99.90
33717;DHT22;20046;50.746;7.072;2024-01-27T08:03:54;3.70;99.90
33717;DHT22;20046;50.746;7.072;2024-01-27T08:06:28;3.80;99.90
33717;DHT22;20046;50.746;7.072;2024-01-27T08:08:55;3.80;99.90
33717;DHT22;20046;50.746;7.072;2024-01-27T08:11:20;3.90;99.90
33717;DHT22;20046;50.746;7.072;2024-01-27T08:13:46;4.20;99.90
33717;DHT22;20046;50.746;7.072;2024-01-27T08:16:11;4.60;99.90
33717;DHT22;20046;50.746;7.072;2024-01-27T08:18:40;4.80;99.90
33717;DHT22;20046;50.746;7.072;2024-01-27T08:21:08;5.00;99.90
33717;DHT22;20046;50.746;7.072;2024-01-27T08:23:34;5.00;99.90
33717;DHT22;20046;50.746;7.072;2024-01-27T08:26:00;5.20;99.90
33717;DHT22;20046;50.746;7.072;2024-01-27T08:28:25;5.30;99.90
33717;DHT22;20046;50.746;7.072;2024-01-27T08:30:51;5.20;99.90
33717;DHT22;20046;50.746;7.072;2024-01-27T08:33:17;4.90;99.90
33717;DHT22;20046;50.746;7.072;2024-01-27T08:35:42;4.80;99.90
33717;DHT22;20046;50.746;7.072;2024-01-27T08:38:08;4.90;99.90
33717;DHT22;20046;50.746;7.072;2024-01-27T08:40:35;5.20;99.90
33717;DHT22;20046;50.746;7.072;2024-01-27T08:43:01;5.20;99.90
33717;DHT22;20046;50.746;7.072;2024-01-27T08:45:27;5.20;99.90
33717;DHT22;20046;50.746;7.072;2024-01-27T08:47:52;5.30;99.90
33717;DHT22;20046;50.746;7.072;2024-01-27T08:50:18;5.70;99.90
33717;DHT22;20046;50.746;7.072;2024-01-27T08:52:44;6.20;99.90
33717;DHT22;20046;50.746;7.072;2024-01-27T08:55:11;6.70;99.90
33717;DHT22;20046;50.746;7.072;2024-01-27T08:57:37;7.40;99.90
33717;DHT22;20046;50.746;7.072;2024-01-27T09:00:02;7.80;99.90
33717;DHT22;20046;50.746;7.072;2024-01-27T09:02:28;8.00;99.90
33717;DHT22;20046;50.746;7.072;2024-01-27T09:04:54;8.60;99.90
33717;DHT22;20046;50.746;7.072;2024-01-27T09:07:20;9.10;99.90
33717;DHT22;20046;50.746;7.072;2024-01-27T09:09:46;9.30;99.90
33717;DHT22;20046;50.746;7.072;2024-01-27T09:12:11;9.30;99.90
33717;DHT22;20046;50.746;7.072;2024-01-27T09:14:37;9.00;99.90
33717;DHT22;20046;50.746;7.072;2024-01-27T09:17:03;9.20;99.90
33717;DHT22;20046;50.746;7.072;2024-01-27T09:19:28;9.50;99.90
33717;DHT22;20046;50.746;7.072;2024-01-27T09:21:54;9.40;99.90
33717;DHT22;20046;50.746;7.072;2024-01-27T09:24:19;9.50;99.90
33717;DHT22;20046;50.746;7.072;2024-01-27T09:26:45;9.60;99.90
33717;DHT22;20046;50.746;7.072;2024-01-27T09:29:11;10.30;99.90
33717;DHT22;20046;50.746;7.072;2024-01-27T09:31:37;10.90;99.90
33717;DHT22;20046;50.746;7.072;2024-01-27T09:34:03;11.30;99.90
33717;DHT22;20046;50.746;7.072;2024-01-27T09:36:28;10.90;99.90
33717;DHT22;20046;50.746;7.072;2024-01-27T09:38:54;11.10;99.90
33717;DHT22;20046;50.746;7.072;2024-01-27T09:41:20;11.30;99.90
33717;DHT22;20046;50.746;7.072;2024-01-27T09:43:47;11.80;99.90
33717;DHT22;20046;50.746;7.072;2024-01-27T09:46:16;11.80;99.90
33717;DHT22;20046;50.746;7.072;2024-01-27T09:48:43;11.90;99.90
33717;DHT22;20046;50.746;7.072;2024-01-27T09:51:10;11.90;99.90
33717;DHT22;20046;50.746;7.072;2024-01-27T09:53:36;11.70;99.90
33717;DHT22;20046;50.746;7.072;2024-01-27T09:56:02;11.50;99.90
33717;DHT22;20046;50.746;7.072;2024-01-27T09:58:29;11.90;99.90
33717;DHT22;20046;50.746;7.072;2024-01-27T10:00:57;12.10;99.90
33717;DHT22;20046;50.746;7.072;2024-01-27T10:03:27;12.50;99.90
33717;DHT22;20046;50.746;7.072;2024-01-27T10:05:54;12.80;99.90
33717;DHT22;20046;50.746;7.072;2024-01-27T10:08:20;13.30;99.90
33717;DHT22;20046;50.746;7.072;2024-01-27T10:10:47;13.20;99.90
33717;DHT22;20046;50.746;7.072;2024-01-27T10:13:14;12.80;99.90
33717;DHT22;20046;50.746;7.072;2024-01-27T10:15:42;12.90;99.90
33717;DHT22;20046;50.746;7.072;2024-01-27T10:18:08;13.10;99.90
33717;DHT22;20046;50.746;7.072;2024-01-27T10:20:39;13.10;99.90
33717;DHT22;20046;50.746;7.072;2024-01-27T10:23:11;12.60;99.90
33717;DHT22;20046;50.746;7.072;2024-01-27T10:25:40;12.60;99.90
33717;DHT22;20046;50.746;7.072;2024-01-27T10:28:09;12.80;99.90
33717;DHT22;20046;50.746;7.072;2024-01-27T10:30:35;13.30;99.90
33717;DHT22;20046;50.746;7.072;2024-01-27T10:33:01;12.80;99.90
33717;DHT22;20046;50.746;7.072;2024-01-27T10:35:28;12.10;99.90
33717;DHT22;20046;50.746;7.072;2024-01-27T10:37:54;11.50;99.90
33717;DHT22;20046;50.746;7.072;2024-01-27T10:40:21;11.40;99.90
33717;DHT22;20046;50.746;7.072;2024-01-27T10:43:01;11.50;99.90
33717;DHT22;20046;50.746;7.072;2024-01-27T10:45:31;11.50;99.90
33717;DHT22;20046;50.746;7.072;2024-01-27T10:47:59;11.60;99.90
33717;DHT22;20046;50.746;7.072;2024-01-27T10:50:27;11.50;99.90
33717;DHT22;20046;50.746;7.072;2024-01-27T10:52:54;11.80;99.90
33717;DHT22;20046;50.746;7.072;2024-01-27T10:55:22;12.90;99.90
33717;DHT22;20046;50.746;7.072;2024-01-27T10:57:49;13.60;99.90
33717;DHT22;20046;50.746;7.072;2024-01-27T11:00:16;13.90;99.90
33717;DHT22;20046;50.746;7.072;2024-01-27T11:02:42;14.50;99.80
33717;DHT22;20046;50.746;7.072;2024-01-27T11:05:10;14.80;98.70
33717;DHT22;20046;50.746;7.072;2024-01-27T11:07:38;14.50;98.30
33717;DHT22;20046;50.746;7.072;2024-01-27T11:10:05;13.50;98.80
33717;DHT22;20046;50.746;7.072;2024-01-27T11:12:31;13.20;99.50
33717;DHT22;20046;50.746;7.072;2024-01-27T11:14:57;13.10;99.90
33717;DHT22;20046;50.746;7.072;2024-01-27T11:17:25;12.40;99.90
33717;DHT22;20046;50.746;7.072;2024-01-27T11:19:51;11.90;99.90
33717;DHT22;20046;50.746;7.072;2024-01-27T11:22:43;11.10;99.90
33717;DHT22;20046;50.746;7.072;2024-01-27T11:27:39;12.10;99.90
33717;DHT22;20046;50.746;7.072;2024-01-27T11:30:10;12.80;99.90
33717;DHT22;20046;50.746;7.072;2024-01-27T11:32:49;13.00;99.90
33717;DHT22;20046;50.746;7.072;2024-01-27T11:35:17;12.20;99.90
33717;DHT22;20046;50.746;7.072;2024-01-27T11:37:42;11.80;99.90
33717;DHT22;20046;50.746;7.072;2024-01-27T11:40:09;12.40;99.90
33717;DHT22;20046;50.746;7.072;2024-01-27T11:42:35;13.20;99.90
33717;DHT22;20046;50.746;7.072;2024-01-27T11:45:01;13.80;99.30
33717;DHT22;20046;50.746;7.072;2024-01-27T11:47:27;14.00;98.70
33717;DHT22;20046;50.746;7.072;2024-01-27T11:49:54;14.70;98.40
33717;DHT22;20046;50.746;7.072;2024-01-27T11:52:22;15.50;96.80
33717;DHT22;20046;50.746;7.072;2024-01-27T11:55:00;16.20;97.00
33717;DHT22;20046;50.746;7.072;2024-01-27T11:57:27;17.30;95.50
33717;DHT22;20046;50.746;7.072;2024-01-27T11:59:53;17.90;93.70
33717;DHT22;20046;50.746;7.072;2024-01-27T12:02:19;18.70;92.20
33717;DHT22;20046;50.746;7.072;2024-01-27T12:04:46;19.30;91.40
33717;DHT22;20046;50.746;7.072;2024-01-27T12:07:12;19.90;90.60
33717;DHT22;20046;50.746;7.072;2024-01-27T12:09:38;20.90;87.20
33717;DHT22;20046;50.746;7.072;2024-01-27T12:12:04;21.90;83.60
33717;DHT22;20046;50.746;7.072;2024-01-27T12:14:45;22.60;80.20
33717;DHT22;20046;50.746;7.072;2024-01-27T12:17:12;23.10;77.10
33717;DHT22;20046;50.746;7.072;2024-01-27T12:19:38;22.60;73.80
33717;DHT22;20046;50.746;7.072;2024-01-27T12:22:04;23.10;72.80
33717;DHT22;20046;50.746;7.072;2024-01-27T12:24:30;22.70;72.00
33717;DHT22;20046;50.746;7.072;2024-01-27T12:26:59;22.80;70.40
33717;DHT22;20046;50.746;7.072;2024-01-27T12:29:25;22.30;70.70
33717;DHT22;20046;50.746;7.072;2024-01-27T12:31:51;22.20;70.80
33717;DHT22;20046;50.746;7.072;2024-01-27T12:34:17;21.40;69.80
33717;DHT22;20046;50.746;7.072;2024-01-27T12:36:43;21.60;70.80
33717;DHT22;20046;50.746;7.072;2024-01-27T12:39:09;21.00;70.80
33717;DHT22;20046;50.746;7.072;2024-01-27T12:41:35;21.10;70.60
33717;DHT22;20046;50.746;7.072;2024-01-27T12:44:01;21.00;70.30
33717;DHT22;20046;50.746;7.072;2024-01-27T12:46:27;21.40;70.20
33717;DHT22;20046;50.746;7.072;2024-01-27T12:48:53;21.00;69.10
33717;DHT22;20046;50.746;7.072;2024-01-27T12:51:19;20.80;69.20
33717;DHT22;20046;50.746;7.072;2024-01-27T12:53:45;20.30;69.30
33717;DHT22;20046;50.746;7.072;2024-01-27T12:56:12;20.90;70.30
33717;DHT22;20046;50.746;7.072;2024-01-27T12:58:38;21.30;68.60
33717;DHT22;20046;50.746;7.072;2024-01-27T13:01:05;21.00;68.00
33717;DHT22;20046;50.746;7.072;2024-01-27T13:03:31;21.00;68.20
33717;DHT22;20046;50.746;7.072;2024-01-27T13:05:57;20.80;67.60
33717;DHT22;20046;50.746;7.072;2024-01-27T13:08:23;20.30;68.40
33717;DHT22;20046;50.746;7.072;2024-01-27T13:10:49;20.50;67.70
33717;DHT22;20046;50.746;7.072;2024-01-27T13:13:14;21.40;67.60
33717;DHT22;20046;50.746;7.072;2024-01-27T13:15:40;21.80;66.40
33717;DHT22;20046;50.746;7.072;2024-01-27T13:18:06;22.00;65.60
33717;DHT22;20046;50.746;7.072;2024-01-27T13:20:32;21.40;66.10
33717;DHT22;20046;50.746;7.072;2024-01-27T13:22:58;21.20;65.80
33717;DHT22;20046;50.746;7.072;2024-01-27T13:25:24;21.20;65.90
33717;DHT22;20046;50.746;7.072;2024-01-27T13:27:50;20.70;65.80
33717;DHT22;20046;50.746;7.072;2024-01-27T13:30:16;20.50;65.80
33717;DHT22;20046;50.746;7.072;2024-01-27T13:32:45;19.90;66.20
33717;DHT22;20046;50.746;7.072;2024-01-27T13:35:10;19.50;67.10
33717;DHT22;20046;50.746;7.072;2024-01-27T13:37:36;19.70;67.10
33717;DHT22;20046;50.746;7.072;2024-01-27T13:40:05;19.50;68.10
33717;DHT22;20046;50.746;7.072;2024-01-27T13:42:33;19.20;68.10
33717;DHT22;20046;50.746;7.072;2024-01-27T13:44:59;18.30;69.60
33717;DHT22;20046;50.746;7.072;2024-01-27T13:47:24;17.50;71.00
33717;DHT22;20046;50.746;7.072;2024-01-27T13:49:51;16.50;72.50
33717;DHT22;20046;50.746;7.072;2024-01-27T13:52:17;15.70;74.50
33717;DHT22;20046;50.746;7.072;2024-01-27T13:54:43;14.30;76.30
33717;DHT22;20046;50.746;7.072;2024-01-27T13:57:09;13.60;78.80
33717;DHT22;20046;50.746;7.072;2024-01-27T13:59:36;13.00;80.30
33717;DHT22;20046;50.746;7.072;2024-01-27T14:02:01;12.30;81.10
33717;DHT22;20046;50.746;7.072;2024-01-27T14:04:27;11.80;82.40
33717;DHT22;20046;50.746;7.072;2024-01-27T14:06:53;11.50;84.00
33717;DHT22;20046;50.746;7.072;2024-01-27T14:09:22;11.10;84.10
33717;DHT22;20046;50.746;7.072;2024-01-27T14:11:48;11.10;85.20
33717;DHT22;20046;50.746;7.072;2024-01-27T14:14:14;11.20;85.30
33717;DHT22;20046;50.746;7.072;2024-01-27T14:16:39;11.40;86.00
33717;DHT22;20046;50.746;7.072;2024-01-27T14:19:05;11.20;85.30
33717;DHT22;20046;50.746;7.072;2024-01-27T14:21:32;11.50;85.80
33717;DHT22;20046;50.746;7.072;2024-01-27T14:23:57;11.60;84.90
33717;DHT22;20046;50.746;7.072;2024-01-27T14:26:29;11.60;84.70
33717;DHT22;20046;50.746;7.072;2024-01-27T14:28:55;11.30;85.60
33717;DHT22;20046;50.746;7.072;2024-01-27T14:31:21;11.20;86.00
33717;DHT22;20046;50.746;7.072;2024-01-27T14:33:47;11.60;86.60
33717;DHT22;20046;50.746;7.072;2024-01-27T14:36:13;12.20;84.30
33717;DHT22;20046;50.746;7.072;2024-01-27T14:38:39;12.40;84.00
33717;DHT22;20046;50.746;7.072;2024-01-27T14:41:06;12.90;83.60
33717;DHT22;20046;50.746;7.072;2024-01-27T14:43:32;12.90;83.10
33717;DHT22;20046;50.746;7.072;2024-01-27T14:45:58;12.40;82.70
33717;DHT22;20046;50.746;7.072;2024-01-27T14:48:23;12.20;84.00
33717;DHT22;20046;50.746;7.072;2024-01-27T14:50:49;11.90;83.10
33717;DHT22;20046;50.746;7.072;2024-01-27T14:53:19;12.10;83.60
33717;DHT22;20046;50.746;7.072;2024-01-27T14:55:45;11.80;84.00
33717;DHT22;20046;50.746;7.072;2024-01-27T14:58:11;11.50;84.00
33717;DHT22;20046;50.746;7.072;2024-01-27T15:00:36;11.20;84.60
33717;DHT22;20046;50.746;7.072;2024-01-27T15:03:08;10.80;85.00
33717;DHT22;20046;50.746;7.072;2024-01-27T15:05:34;10.60;85.70
33717;DHT22;20046;50.746;7.072;2024-01-27T15:08:03;10.40;86.20
33717;DHT22;20046;50.746;7.072;2024-01-27T15:10:29;10.20;86.80
33717;DHT22;20046;50.746;7.072;2024-01-27T15:12:54;10.10;87.30
33717;DHT22;20046;50.746;7.072;2024-01-27T15:15:20;10.00;88.80
33717;DHT22;20046;50.746;7.072;2024-01-27T15:17:46;9.90;88.10
33717;DHT22;20046;50.746;7.072;2024-01-27T15:20:12;9.70;87.80
33717;DHT22;20046;50.746;7.072;2024-01-27T15:22:38;9.50;88.40
33717;DHT22;20046;50.746;7.072;2024-01-27T15:25:04;9.30;89.30
33717;DHT22;20046;50.746;7.072;2024-01-27T15:27:30;9.20;89.70
33717;DHT22;20046;50.746;7.072;2024-01-27T15:29:56;9.10;90.20
33717;DHT22;20046;50.746;7.072;2024-01-27T15:32:22;9.00;90.40
33717;DHT22;20046;50.746;7.072;2024-01-27T15:34:49;8.80;90.50
33717;DHT22;20046;50.746;7.072;2024-01-27T15:37:15;8.70;90.70